This demonstration page uses our WeatherBlox Daily Observations layout. Learn more.

39.92423, -83.80882

Hourly Observations for September 25, 2019

Temp ( °F °C ) Dew Point ( °F °C ) Humidity (%) Winds ( mph kmh ) Pressure ( in mb ) Visibility ( mi km ) Precip ( " mm )
12:56 am 00:56 Clear 60 15.6 52 11.1 75 75 SSW 3 6 29.88 1012 10 16.09344 0 0
1:56 am 01:56 Clear 60 15.6 51 10.6 72 72 SSW 3 6 29.88 1012 10 16.09344 0 0
2:56 am 02:56 Clear 57 13.9 51 10.6 81 81 SW 5 7 29.91 1013 10 16.09344 0 0
3:56 am 03:56 Clear 56 13.3 51 10.6 84 84 SSW 5 7 29.91 1013 10 16.09344 0 0
4:56 am 04:56 Clear 53 11.7 50 10 89 89 SSE 5 7 29.91 1013 10 16.09344 0 0
5:56 am 05:56 Clear 57 13.9 50 10 78 78 S 6 9 29.88 1012 10 16.09344 0 0
6:56 am 06:56 Clear 56 13.3 50 10 81 81 S 7 11 29.88 1012 10 16.09344 0 0
7:56 am 07:56 Sunny 57 13.9 51 10.6 81 81 SSW 3 6 29.91 1013 10 16.09344 0 0
8:56 am 08:56 Sunny 61 16.1 52 11.1 72 72 S 8 13 29.91 1013 10 16.09344 0 0
9:56 am 09:56 Sunny 67 19.4 53 11.7 61 61 S 8 13 29.91 1013 10 16.09344 0 0
10:56 am 10:56 Sunny 72 22.2 52 11.1 50 50 SW 15 24 29.88 1012 10 16.09344 0 0
11:56 am 11:56 Partly Cloudy 76 24.4 50 10 40 40 SSW 12 19 29.88 1012 10 16.09344 0 0
12:56 pm 12:56 Mostly Cloudy 79 26.1 50 10 36 36 SSW 10 17 29.85 1011 10 16.09344 0 0
1:56 pm 13:56 Sunny 80 26.7 50 10 35 35 S 12 19 29.83 1010 10 16.09344 0 0
2:56 pm 14:56 Sunny 81 27.2 51 10.6 35 35 SW 12 19 29.8 1009 10 16.09344 0 0
3:56 pm 15:56 Sunny 82 27.8 51 10.6 34 34 SW 16 26 29.8 1009 10 16.09344 0 0
4:56 pm 16:56 Sunny 80 26.7 51 10.6 37 37 SSW 9 15 29.8 1009 10 16.09344 0 0
5:56 pm 17:56 Mostly Sunny 80 26.7 52 11.1 38 38 SSW 9 15 29.8 1009 10 16.09344 0 0
6:56 pm 18:56 Sunny 77 25 54 12.2 45 45 SSW 3 6 29.8 1009 10 16.09344 0 0
7:56 pm 19:56 Mostly Cloudy 75 23.9 54 12.2 48 48 S 6 9 29.8 1009 10 16.09344 0 0
8:56 pm 20:56 Clear 72 22.2 54 12.2 53 53 SSW 5 7 29.8 1009 10 16.09344 0 0
9:56 pm 21:56 Cloudy with Light Rain 67 19.4 60 15.6 79 79 N 8 13 29.83 1010 8 12.874752 0.01 0.254
10:56 pm 22:56 Cloudy 67 19.4 62 16.7 84 84 SSW 7 11 29.83 1010 10 16.09344 0.01 0.254
11:56 pm 23:56 Mostly Cloudy 65 18.3 63 17.2 93 93 SE 3 6 29.83 1010 10 16.09344 0 0

Powered by AerisWeather